createdAt,value
2019-02-28T07:24:45.456Z,73.67
2019-02-28T07:25:47.340Z,73.67
2019-02-28T07:26:45.426Z,73.98
2019-02-28T07:27:45.431Z,73.77
2019-02-28T07:28:45.417Z,73.88
2019-02-28T07:29:45.385Z,73.88
2019-02-28T07:30:45.375Z,73.57
2019-02-28T07:31:45.370Z,73.57
2019-02-28T07:32:45.353Z,73.26
2019-02-28T07:33:45.382Z,73.71
2019-02-28T07:34:45.335Z,73.50
2019-02-28T07:35:45.337Z,73.47
2019-02-28T07:36:45.843Z,73.47
2019-02-28T07:37:45.318Z,73.05
2019-02-28T07:38:45.307Z,73.67
2019-02-28T07:39:45.279Z,73.16
2019-02-28T07:40:45.732Z,73.05
2019-02-28T07:41:45.267Z,73.64
2019-02-28T07:42:45.245Z,72.71
2019-02-28T07:43:52.301Z,73.29
2019-02-28T07:44:45.231Z,73.60
2019-02-28T07:45:45.234Z,72.78
2019-02-28T07:46:45.203Z,72.57
2019-02-28T07:47:45.196Z,72.33
2019-02-28T07:48:45.201Z,72.74
2019-02-28T07:49:45.181Z,72.23
2019-02-28T07:50:46.683Z,71.92
2019-02-28T07:51:45.154Z,72.23
2019-02-28T07:52:45.143Z,71.89
2019-02-28T07:53:45.196Z,71.37
2019-02-28T07:54:47.581Z,71.47
2019-02-28T07:55:46.113Z,71.44
2019-02-28T07:56:45.098Z,70.20
2019-02-28T07:57:45.091Z,70.00
2019-02-28T07:58:45.108Z,70.37
2019-02-28T07:59:45.081Z,69.96
2019-02-28T08:00:45.058Z,69.45
2019-02-28T08:01:45.048Z,70.37
2019-02-28T08:02:45.067Z,69.24
2019-02-28T08:03:45.051Z,69.21
2019-02-28T08:04:45.042Z,69.52
2019-02-28T08:05:45.031Z,69.70
2019-02-28T08:06:44.994Z,69.28
2019-02-28T08:07:50.250Z,69.87
2019-02-28T08:08:45.982Z,68.43
2019-02-28T08:09:44.991Z,68.12
2019-02-28T08:10:47.933Z,68.70
2019-02-28T08:11:44.952Z,68.19
2019-02-28T08:12:44.938Z,67.98
2019-02-28T08:13:44.923Z,67.95
2019-02-28T08:14:47.037Z,67.03
2019-02-28T08:15:44.907Z,66.28
2019-02-28T08:16:44.894Z,66.07
2019-02-28T08:17:44.886Z,65.94
2019-02-28T08:18:44.878Z,65.12
2019-02-28T08:19:44.899Z,65.09
2019-02-28T08:20:44.851Z,63.93
2019-02-28T08:21:49.375Z,63.72
2019-02-28T08:22:45.839Z,63.69
2019-02-28T08:23:44.822Z,63.25
2019-02-28T08:24:44.829Z,62.63
2019-02-28T08:25:44.800Z,63.15
2019-02-28T08:26:44.794Z,63.25
2019-02-28T08:27:44.783Z,62.74
2019-02-28T08:28:44.769Z,62.51
2019-02-28T08:29:45.680Z,62.19
2019-02-28T08:30:44.748Z,61.35
2019-02-28T08:31:44.740Z,61.63
2019-02-28T08:32:47.020Z,60.50
2019-02-28T08:33:48.105Z,60.50
2019-02-28T08:34:46.752Z,60.55
2019-02-28T08:35:44.762Z,60.85
2019-02-28T08:36:46.903Z,60.03
2019-02-28T08:37:44.672Z,59.94
2019-02-28T08:38:44.680Z,59.50
2019-02-28T08:39:44.674Z,58.75
2019-02-28T08:40:50.289Z,58.52
2019-02-28T08:41:45.634Z,58.39
2019-02-28T08:42:44.626Z,57.88
2019-02-28T08:43:47.587Z,57.65
2019-02-28T08:44:44.638Z,56.99
2019-02-28T08:45:44.585Z,56.10
2019-02-28T08:46:46.532Z,56.07
2019-02-28T08:47:44.597Z,55.99
2019-02-28T08:48:44.566Z,55.97
2019-02-28T08:49:45.541Z,55.76
2019-02-28T08:50:44.543Z,54.61
2019-02-28T08:51:44.524Z,55.22
2019-02-28T08:52:44.509Z,55.30
2019-02-28T08:53:50.777Z,54.36
2019-02-28T08:54:45.515Z,53.44
2019-02-28T08:55:44.494Z,53.22
2019-02-28T08:56:46.219Z,53.17
2019-02-28T08:57:44.453Z,52.51
2019-02-28T08:58:44.443Z,51.46
2019-02-28T08:59:44.475Z,49.82
2019-02-28T09:00:44.428Z,50.00
2019-02-28T09:01:44.409Z,48.35
2019-02-28T09:02:44.438Z,48.03
2019-02-28T09:03:44.389Z,48.00
2019-02-28T09:04:44.937Z,47.67
2019-02-28T09:05:44.373Z,46.44
2019-02-28T09:06:44.361Z,45.61
2019-02-28T09:07:44.344Z,46.04
2019-02-28T09:08:44.335Z,46.34
2019-02-28T09:09:44.361Z,46.22
2019-02-28T09:10:46.932Z,45.81
2019-02-28T09:11:44.314Z,46.17
2019-02-28T09:12:44.327Z,45.16
2019-02-28T09:13:44.289Z,44.88
2019-02-28T09:14:44.311Z,44.46
2019-02-28T09:15:44.257Z,45.34
2019-02-28T09:16:44.253Z,44.13
2019-02-28T09:17:44.240Z,44.01
2019-02-28T09:18:44.826Z,43.77
2019-02-28T09:19:44.234Z,43.04
2019-02-28T09:20:45.085Z,42.72
2019-02-28T09:21:44.197Z,43.04
2019-02-28T09:22:44.186Z,42.64
2019-02-28T09:23:44.176Z,42.68
2019-02-28T09:24:46.792Z,44.15
2019-02-28T09:25:44.160Z,45.65
2019-02-28T09:26:44.142Z,46.34
2019-02-28T09:27:44.135Z,46.14
2019-02-28T09:28:44.418Z,46.14
2019-02-28T09:29:44.136Z,46.44
2019-02-28T09:30:44.099Z,45.86
2019-02-28T09:31:44.086Z,47.52
2019-02-28T09:32:45.270Z,46.26
2019-02-28T09:33:44.084Z,46.24
2019-02-28T09:34:44.054Z,46.22
2019-02-28T09:35:46.326Z,45.99
2019-02-28T09:36:44.031Z,45.89
2019-02-28T09:37:44.020Z,45.61
2019-02-28T09:38:45.262Z,45.89
2019-02-28T09:39:44.013Z,45.14
2019-02-28T09:40:44.016Z,43.89
2019-02-28T09:41:43.979Z,44.31
2019-02-28T09:42:44.594Z,45.06
2019-02-28T09:43:43.955Z,44.42
2019-02-28T09:44:43.965Z,43.69
2019-02-28T09:45:43.960Z,42.47
2019-02-28T09:46:43.930Z,44.11
2019-02-28T09:47:43.928Z,43.89
2019-02-28T09:48:43.905Z,44.09
2019-02-28T09:49:44.229Z,43.69
2019-02-28T09:50:43.900Z,43.24
2019-02-28T09:51:43.882Z,42.32
2019-02-28T09:52:43.860Z,42.27
2019-02-28T09:53:43.853Z,41.97
2019-02-28T09:54:43.845Z,41.13
2019-02-28T09:55:43.848Z,40.53
2019-02-28T09:56:44.568Z,41.47
2019-02-28T09:57:43.806Z,41.53
2019-02-28T09:58:43.798Z,40.37
2019-02-28T09:59:43.789Z,38.81
2019-02-28T10:00:46.500Z,38.92
2019-02-28T10:01:44.766Z,37.68
2019-02-28T10:02:45.082Z,37.66
2019-02-28T10:03:43.742Z,37.13
2019-02-28T10:04:43.738Z,35.71
2019-02-28T10:05:43.742Z,35.71
2019-02-28T10:06:43.711Z,35.39
2019-02-28T10:07:43.708Z,36.21
2019-02-28T10:08:43.694Z,36.23
2019-02-28T10:09:44.419Z,37.38
2019-02-28T10:10:43.701Z,38.32
2019-02-28T10:11:43.661Z,39.58
2019-02-28T10:12:43.648Z,41.37
2019-02-28T10:13:43.639Z,42.52
2019-02-28T10:14:43.629Z,43.46
2019-02-28T10:15:43.650Z,43.99
2019-02-28T10:16:43.610Z,44.29
2019-02-28T10:17:43.599Z,44.49
2019-02-28T10:18:43.586Z,43.42
2019-02-28T10:19:45.865Z,42.61
2019-02-28T10:20:43.586Z,42.70
2019-02-28T10:21:43.570Z,42.80
2019-02-28T10:22:44.315Z,42.82
2019-02-28T10:23:43.531Z,43.34
2019-02-28T10:24:43.520Z,44.09
2019-02-28T10:25:43.812Z,44.87
2019-02-28T10:26:43.681Z,44.05
2019-02-28T10:27:43.712Z,44.02
2019-02-28T10:28:43.482Z,44.31
2019-02-28T10:29:43.476Z,43.51
2019-02-28T10:30:43.519Z,43.71
2019-02-28T10:31:43.447Z,42.98
2019-02-28T10:32:44.064Z,42.55
2019-02-28T10:33:43.440Z,42.86
2019-02-28T10:34:43.420Z,42.35
2019-02-28T10:35:43.410Z,43.48
2019-02-28T10:36:44.463Z,43.60
2019-02-28T10:37:43.396Z,44.31
2019-02-28T10:38:43.377Z,44.31
2019-02-28T10:39:43.834Z,44.35
2019-02-28T10:40:43.355Z,44.35
2019-02-28T10:41:43.409Z,45.81
2019-02-28T10:42:43.329Z,46.33
2019-02-28T10:43:43.342Z,46.66
2019-02-28T10:44:43.319Z,47.34
2019-02-28T10:45:43.307Z,46.86
2019-02-28T10:46:43.311Z,46.53
2019-02-28T10:47:43.277Z,46.51
2019-02-28T10:48:50.843Z,46.41
2019-02-28T10:49:44.262Z,46.51
2019-02-28T10:50:43.253Z,46.51
2019-02-28T10:51:44.666Z,47.24
2019-02-28T10:52:44.225Z,47.44
2019-02-28T10:53:43.219Z,46.92
2019-02-28T10:54:43.203Z,46.64
2019-02-28T10:55:43.193Z,46.53
2019-02-28T10:56:43.206Z,47.54
2019-02-28T10:57:43.172Z,47.56
2019-02-28T10:58:43.164Z,46.53
2019-02-28T10:59:43.149Z,46.53
2019-02-28T11:00:43.135Z,46.64
2019-02-28T11:01:43.144Z,46.64
2019-02-28T11:02:43.117Z,46.36
2019-02-28T11:03:43.116Z,47.39
2019-02-28T11:04:43.966Z,47.81
2019-02-28T11:05:43.087Z,48.22
2019-02-28T11:06:43.092Z,47.99
2019-02-28T11:07:43.059Z,47.16
2019-02-28T11:08:44.405Z,46.86
2019-02-28T11:09:43.044Z,46.01
2019-02-28T11:10:43.044Z,46.19
2019-02-28T11:11:45.586Z,45.44
2019-02-28T11:12:43.007Z,44.27
2019-02-28T11:13:42.995Z,42.82
2019-02-28T11:14:42.983Z,42.46
2019-02-28T11:15:47.834Z,40.11
2019-02-28T11:16:43.984Z,39.75
2019-02-28T11:17:44.559Z,39.25
2019-02-28T11:18:42.944Z,38.31
2019-02-28T11:19:42.937Z,37.06
2019-02-28T11:20:42.918Z,36.74
2019-02-28T11:21:42.932Z,36.39
2019-02-28T11:22:42.898Z,35.26
2019-02-28T11:23:42.897Z,34.27
2019-02-28T11:24:42.878Z,34.84
2019-02-28T11:25:42.866Z,34.56
2019-02-28T11:26:44.756Z,34.84
2019-02-28T11:27:42.845Z,34.53
2019-02-28T11:28:42.845Z,33.81
2019-02-28T11:29:42.825Z,33.60
2019-02-28T11:30:44.728Z,33.09
2019-02-28T11:31:42.824Z,32.97
2019-02-28T11:32:42.803Z,32.56
2019-02-28T11:33:42.789Z,32.05
2019-02-28T11:34:42.785Z,31.52
2019-02-28T11:35:42.761Z,31.42
2019-02-28T11:36:44.747Z,31.23
2019-02-28T11:37:46.002Z,30.81
2019-02-28T11:38:42.739Z,30.81
2019-02-28T11:39:42.723Z,32.00
2019-02-28T11:40:43.919Z,31.65
2019-02-28T11:41:42.726Z,31.47
2019-02-28T11:42:42.687Z,31.63
2019-02-28T11:43:42.679Z,30.83
2019-02-28T11:44:43.543Z,30.71
2019-02-28T11:45:42.662Z,30.79
2019-02-28T11:46:42.670Z,29.78
2019-02-28T11:47:43.401Z,30.06
2019-02-28T11:48:42.627Z,30.15
2019-02-28T11:49:42.616Z,29.97
2019-02-28T11:50:44.985Z,30.74
2019-02-28T11:51:42.621Z,32.29
2019-02-28T11:52:42.588Z,33.34
2019-02-28T11:53:42.625Z,33.75
2019-02-28T11:54:45.182Z,33.92
2019-02-28T11:55:42.553Z,32.97
2019-02-28T11:56:42.592Z,31.96
2019-02-28T11:57:42.534Z,31.54
2019-02-28T11:58:42.531Z,31.52
2019-02-28T11:59:42.513Z,31.62
2019-02-28T12:00:42.506Z,31.02
2019-02-28T12:01:47.482Z,31.31
2019-02-28T12:02:43.510Z,31.01
2019-02-28T12:03:42.471Z,30.99
2019-02-28T12:04:42.466Z,30.79
2019-02-28T12:05:42.451Z,30.79
2019-02-28T12:06:42.443Z,31.01
2019-02-28T12:07:42.449Z,31.84
2019-02-28T12:08:45.100Z,31.62
2019-02-28T12:09:42.409Z,31.31
2019-02-28T12:10:42.415Z,31.31
2019-02-28T12:11:42.389Z,31.32
2019-02-28T12:12:44.626Z,31.44
2019-02-28T12:13:42.375Z,31.23
2019-02-28T12:14:42.370Z,32.69
2019-02-28T12:15:42.348Z,34.55
2019-02-28T12:16:42.337Z,35.16
2019-02-28T12:17:42.351Z,34.53
2019-02-28T12:18:42.322Z,35.16
2019-02-28T12:19:42.305Z,36.01
2019-02-28T12:20:42.303Z,37.08
2019-02-28T12:21:42.290Z,38.23
2019-02-28T12:22:43.968Z,39.25
2019-02-28T12:23:43.265Z,39.79
2019-02-28T12:24:42.255Z,40.61
2019-02-28T12:25:42.802Z,41.45
2019-02-28T12:26:42.242Z,41.85
2019-02-28T12:27:42.249Z,41.85
2019-02-28T12:28:42.215Z,41.57
2019-02-28T12:29:42.207Z,41.38
2019-02-28T12:30:42.191Z,40.37
2019-02-28T12:31:42.179Z,39.61
2019-02-28T12:32:43.502Z,38.24
2019-02-28T12:33:42.164Z,36.80
2019-02-28T12:34:42.149Z,37.10
2019-02-28T12:35:42.138Z,36.69
2019-02-28T12:36:42.127Z,36.51
2019-02-28T12:37:42.141Z,37.08
2019-02-28T12:38:42.118Z,36.85
2019-02-28T12:39:42.110Z,37.05
2019-02-28T12:40:42.504Z,36.74
2019-02-28T12:41:42.073Z,36.97
2019-02-28T12:42:42.082Z,38.04
2019-02-28T12:43:42.055Z,39.06
2019-02-28T12:44:42.041Z,37.94
2019-02-28T12:45:42.041Z,39.46
2019-02-28T12:46:43.427Z,39.65
2019-02-28T12:47:42.242Z,39.95
2019-02-28T12:48:41.999Z,39.78
2019-02-28T12:49:41.988Z,39.65
2019-02-28T12:50:41.975Z,39.86
2019-02-28T12:51:41.979Z,40.36
2019-02-28T12:52:41.976Z,40.75
2019-02-28T12:53:41.944Z,40.67
2019-02-28T12:54:41.967Z,41.39
2019-02-28T12:55:41.946Z,41.61
2019-02-28T12:56:41.912Z,42.71
2019-02-28T12:57:41.919Z,43.24
2019-02-28T12:58:41.911Z,43.77
2019-02-28T12:59:46.018Z,43.90
2019-02-28T13:00:42.868Z,45.02
2019-02-28T13:01:41.859Z,45.77
2019-02-28T13:02:43.666Z,45.69
2019-02-28T13:03:41.839Z,47.12
2019-02-28T13:04:41.828Z,48.07
2019-02-28T13:05:41.818Z,48.67
2019-02-28T13:06:41.826Z,48.27
2019-02-28T13:07:41.821Z,48.29
2019-02-28T13:08:42.455Z,48.99
2019-02-28T13:09:41.785Z,49.10
2019-02-28T13:10:42.236Z,49.50
2019-02-28T13:11:41.758Z,49.73
2019-02-28T13:12:44.226Z,49.82
2019-02-28T13:13:42.754Z,49.65
2019-02-28T13:14:41.902Z,49.82
2019-02-28T13:15:45.417Z,49.22
2019-02-28T13:16:41.711Z,50.15
2019-02-28T13:17:41.747Z,49.85
2019-02-28T13:18:43.618Z,50.57
2019-02-28T13:19:41.695Z,51.31
2019-02-28T13:20:41.656Z,51.53
2019-02-28T13:21:43.732Z,52.24
2019-02-28T13:22:42.642Z,52.06
2019-02-28T13:23:41.665Z,53.40
2019-02-28T13:24:42.497Z,53.52
2019-02-28T13:25:41.619Z,54.66
2019-02-28T13:26:41.592Z,54.79
2019-02-28T13:27:45.232Z,55.52
2019-02-28T13:28:41.592Z,55.65
2019-02-28T13:29:41.615Z,56.99
2019-02-28T13:30:49.001Z,57.09
2019-02-28T13:31:42.549Z,58.23
2019-02-28T13:32:41.534Z,58.16
2019-02-28T13:33:41.543Z,59.00
2019-02-28T13:34:41.522Z,58.80
2019-02-28T13:35:46.017Z,59.63
2019-02-28T13:36:42.484Z,59.94
2019-02-28T13:37:42.261Z,59.63
2019-02-28T13:38:41.515Z,60.44
2019-02-28T13:39:41.478Z,59.97
2019-02-28T13:40:44.821Z,60.95
2019-02-28T13:41:41.433Z,60.47
2019-02-28T13:42:42.268Z,60.04
2019-02-28T13:43:41.467Z,60.65
2019-02-28T13:44:41.409Z,59.97
2019-02-28T13:45:41.396Z,59.97
2019-02-28T13:46:41.394Z,60.30
2019-02-28T13:47:42.022Z,60.91
2019-02-28T13:48:41.442Z,61.01
2019-02-28T13:49:41.357Z,61.01
2019-02-28T13:50:41.341Z,61.34
2019-02-28T13:51:42.670Z,61.24
2019-02-28T13:52:41.332Z,61.44
2019-02-28T13:53:41.332Z,61.27
2019-02-28T13:54:42.119Z,61.57
2019-02-28T13:55:41.302Z,62.08
2019-02-28T13:56:41.273Z,61.98
2019-02-28T13:57:43.693Z,62.29
2019-02-28T13:58:41.283Z,62.41
2019-02-28T13:59:41.306Z,62.29
2019-02-28T14:00:45.822Z,62.62
2019-02-28T14:01:41.229Z,62.82
2019-02-28T14:02:41.219Z,63.36
2019-02-28T14:03:42.270Z,63.97
2019-02-28T14:04:41.185Z,63.77
2019-02-28T14:05:41.750Z,63.67
2019-02-28T14:06:41.171Z,63.97
2019-02-28T14:07:41.159Z,63.87
2019-02-28T14:08:42.044Z,64.48
2019-02-28T14:09:41.145Z,64.58
2019-02-28T14:10:41.123Z,64.18
2019-02-28T14:11:41.838Z,64.41
2019-02-28T14:12:41.102Z,64.20
2019-02-28T14:13:41.111Z,64.41
2019-02-28T14:14:42.407Z,64.41
2019-02-28T14:15:41.092Z,64.61
2019-02-28T14:16:41.078Z,64.81
2019-02-28T14:17:41.045Z,65.33
2019-02-28T14:18:42.595Z,64.95
2019-02-28T14:19:41.030Z,65.46
2019-02-28T14:20:41.026Z,65.05
2019-02-28T14:21:41.013Z,65.33
2019-02-28T14:22:42.716Z,65.02
2019-02-28T14:23:41.010Z,64.92
2019-02-28T14:24:40.982Z,64.92
2019-02-28T14:25:41.309Z,64.38
2019-02-28T14:26:43.077Z,64.20
2019-02-28T14:27:40.936Z,64.31
2019-02-28T14:28:40.941Z,65.12
2019-02-28T14:29:43.007Z,65.02
2019-02-28T14:30:41.923Z,64.72
2019-02-28T14:31:40.909Z,65.02
2019-02-28T14:32:42.338Z,64.72
2019-02-28T14:33:40.899Z,64.72
2019-02-28T14:34:40.893Z,64.20
2019-02-28T14:35:40.851Z,64.51
2019-02-28T14:36:41.826Z,63.70
2019-02-28T14:37:40.832Z,63.70
2019-02-28T14:38:40.827Z,64.51
2019-02-28T14:39:42.676Z,64.20
2019-02-28T14:40:40.799Z,64.75
2019-02-28T14:41:40.787Z,64.54
2019-02-28T14:42:43.512Z,64.67
2019-02-28T14:43:40.775Z,65.19
2019-02-28T14:44:40.783Z,65.39
2019-02-28T14:45:42.907Z,65.08
2019-02-28T14:46:40.735Z,65.19
2019-02-28T14:47:40.730Z,65.16
2019-02-28T14:48:40.780Z,64.95
2019-02-28T14:49:43.912Z,65.25
2019-02-28T14:50:40.694Z,64.75
2019-02-28T14:51:40.706Z,64.64
2019-02-28T14:52:40.668Z,64.95
2019-02-28T14:53:40.656Z,65.25
2019-02-28T14:54:40.665Z,64.75
2019-02-28T14:55:40.634Z,64.75
2019-02-28T14:56:42.232Z,65.05
2019-02-28T14:57:40.632Z,65.05
2019-02-28T14:58:40.603Z,64.51
2019-02-28T14:59:40.630Z,64.51
2019-02-28T15:00:42.129Z,64.31
2019-02-28T15:01:40.593Z,64.00
2019-02-28T15:02:40.561Z,63.59
2019-02-28T15:03:40.551Z,62.98
2019-02-28T15:04:42.778Z,62.98
2019-02-28T15:05:40.531Z,63.09
2019-02-28T15:06:40.514Z,63.19
2019-02-28T15:07:42.020Z,63.29
2019-02-28T15:08:40.519Z,63.09
2019-02-28T15:09:40.506Z,62.68
2019-02-28T15:10:40.472Z,62.68
2019-02-28T15:11:40.475Z,62.88
2019-02-28T15:12:40.463Z,62.78
2019-02-28T15:13:40.443Z,62.68
2019-02-28T15:14:43.003Z,62.58
2019-02-28T15:15:40.445Z,62.88
2019-02-28T15:16:40.407Z,62.88
2019-02-28T15:17:41.944Z,62.78
2019-02-28T15:18:40.388Z,62.78
2019-02-28T15:19:43.019Z,62.48
2019-02-28T15:20:40.434Z,62.68
2019-02-28T15:21:42.664Z,62.68
2019-02-28T15:22:40.340Z,62.68
2019-02-28T15:23:40.329Z,62.68
2019-02-28T15:24:43.284Z,62.88
2019-02-28T15:25:40.307Z,62.78
2019-02-28T15:26:40.301Z,62.35
2019-02-28T15:27:40.304Z,62.78
2019-02-28T15:28:40.272Z,62.68
2019-02-28T15:29:40.281Z,63.09
2019-02-28T15:30:40.255Z,63.19
2019-02-28T15:31:40.481Z,63.39
2019-02-28T15:32:40.233Z,63.39
2019-02-28T15:33:40.224Z,63.39
2019-02-28T15:34:41.047Z,63.29
2019-02-28T15:35:40.204Z,63.19
2019-02-28T15:36:40.186Z,63.39
2019-02-28T15:37:40.305Z,63.19
2019-02-28T15:38:41.922Z,63.80
2019-02-28T15:39:40.175Z,63.77
2019-02-28T15:40:40.670Z,63.36
2019-02-28T15:41:40.144Z,63.36
2019-02-28T15:42:42.901Z,63.59
2019-02-28T15:43:40.112Z,63.57
2019-02-28T15:44:40.119Z,64.11
2019-02-28T15:45:40.103Z,63.70
2019-02-28T15:46:40.077Z,63.90
2019-02-28T15:47:40.072Z,63.70
2019-02-28T15:48:40.057Z,64.31
2019-02-28T15:49:41.751Z,64.20
2019-02-28T15:50:40.034Z,64.11
2019-02-28T15:51:40.037Z,63.90
2019-02-28T15:52:40.160Z,63.80
2019-02-28T15:53:40.000Z,64.00
2019-02-28T15:54:39.995Z,64.61
2019-02-28T15:55:40.023Z,63.80
2019-02-28T15:56:39.966Z,63.59
2019-02-28T15:57:39.956Z,64.20
2019-02-28T15:58:41.474Z,64.00
2019-02-28T15:59:40.000Z,64.20
2019-02-28T16:00:39.974Z,64.20
2019-02-28T16:01:39.920Z,64.11
2019-02-28T16:02:42.065Z,64.31
2019-02-28T16:03:39.891Z,64.61
2019-02-28T16:04:39.879Z,63.77
2019-02-28T16:05:43.940Z,63.59
2019-02-28T16:06:39.867Z,63.90
2019-02-28T16:07:39.849Z,63.97
2019-02-28T16:08:42.016Z,63.49
2019-02-28T16:09:40.832Z,63.70
2019-02-28T16:10:39.836Z,63.16
2019-02-28T16:11:41.124Z,63.09
2019-02-28T16:12:39.792Z,62.68
2019-02-28T16:13:39.795Z,62.96
2019-02-28T16:14:39.772Z,62.96
2019-02-28T16:15:39.785Z,63.19
2019-02-28T16:16:39.757Z,63.09
2019-02-28T16:17:39.747Z,62.78
2019-02-28T16:18:40.682Z,62.75
2019-02-28T16:19:39.720Z,62.65
2019-02-28T16:20:39.738Z,62.55
2019-02-28T16:21:40.947Z,62.55
2019-02-28T16:22:39.684Z,62.65
2019-02-28T16:23:39.682Z,62.24
2019-02-28T16:24:40.603Z,62.78
2019-02-28T16:25:39.670Z,62.98
2019-02-28T16:26:39.654Z,63.62
2019-02-28T16:27:39.627Z,63.39
2019-02-28T16:28:42.600Z,63.73
2019-02-28T16:29:39.618Z,63.93
2019-02-28T16:30:39.629Z,64.14
2019-02-28T16:31:41.639Z,63.70
2019-02-28T16:32:39.595Z,63.70
2019-02-28T16:33:39.562Z,63.22
2019-02-28T16:34:42.464Z,63.39
2019-02-28T16:35:39.568Z,63.39
2019-02-28T16:36:39.529Z,63.19
2019-02-28T16:37:39.531Z,63.39
2019-02-28T16:38:42.486Z,63.70
2019-02-28T16:39:40.505Z,64.11
2019-02-28T16:40:39.507Z,63.70
2019-02-28T16:41:39.487Z,64.51
2019-02-28T16:42:39.487Z,64.44
2019-02-28T16:43:39.457Z,64.44
2019-02-28T16:44:39.451Z,64.23
2019-02-28T16:45:40.957Z,64.54
2019-02-28T16:46:39.423Z,64.61
2019-02-28T16:47:39.414Z,64.14
2019-02-28T16:48:39.403Z,64.34
2019-02-28T16:49:41.417Z,64.23
2019-02-28T16:50:39.410Z,64.44
2019-02-28T16:51:39.364Z,64.23
2019-02-28T16:52:39.963Z,64.44
2019-02-28T16:53:39.351Z,64.34
2019-02-28T16:54:39.353Z,64.64
2019-02-28T16:55:39.343Z,65.08
2019-02-28T16:56:39.312Z,64.78
2019-02-28T16:57:39.300Z,65.39
2019-02-28T16:58:39.288Z,64.78
2019-02-28T16:59:39.292Z,64.64
2019-02-28T17:00:39.547Z,64.84
2019-02-28T17:01:39.257Z,65.19
2019-02-28T17:02:40.615Z,65.49
2019-02-28T17:03:41.753Z,65.49
2019-02-28T17:04:39.221Z,65.19
2019-02-28T17:05:39.231Z,65.59
2019-02-28T17:06:39.204Z,65.69
2019-02-28T17:07:40.490Z,65.49
2019-02-28T17:08:39.176Z,66.10
2019-02-28T17:09:39.164Z,66.03
2019-02-28T17:10:40.185Z,66.10
2019-02-28T17:11:39.157Z,66.03
2019-02-28T17:12:39.139Z,66.10
2019-02-28T17:13:39.501Z,66.00
2019-02-28T17:14:39.110Z,66.64
2019-02-28T17:15:39.157Z,66.50
2019-02-28T17:16:39.087Z,66.33
2019-02-28T17:17:39.079Z,66.20
2019-02-28T17:18:39.078Z,66.74
2019-02-28T17:19:39.064Z,66.54
2019-02-28T17:20:40.692Z,66.85
2019-02-28T17:21:39.055Z,66.74
2019-02-28T17:22:39.022Z,66.64
2019-02-28T17:23:39.014Z,66.85
2019-02-28T17:24:39.002Z,66.82
2019-02-28T17:25:38.986Z,66.64
2019-02-28T17:26:39.009Z,66.61
2019-02-28T17:27:41.348Z,66.71
2019-02-28T17:28:38.954Z,66.64
2019-02-28T17:29:38.944Z,66.33
2019-02-28T17:30:38.933Z,66.23
2019-02-28T17:31:38.944Z,66.33
2019-02-28T17:32:38.911Z,66.20
2019-02-28T17:33:38.906Z,66.41
2019-02-28T17:34:38.885Z,66.50
2019-02-28T17:35:38.882Z,66.71
2019-02-28T17:36:38.887Z,66.64
2019-02-28T17:37:38.854Z,66.54
2019-02-28T17:38:38.843Z,66.54
2019-02-28T17:39:38.858Z,66.71
2019-02-28T17:40:38.826Z,66.74
2019-02-28T17:41:38.838Z,66.61
2019-02-28T17:42:38.802Z,66.03
2019-02-28T17:43:38.786Z,66.10
2019-02-28T17:44:38.775Z,66.50
2019-02-28T17:45:38.768Z,65.80
2019-02-28T17:46:38.840Z,65.83
2019-02-28T17:47:38.814Z,66.00
2019-02-28T17:48:38.735Z,66.64
2019-02-28T17:49:38.718Z,66.54
2019-02-28T17:50:39.345Z,66.54
2019-02-28T17:51:38.724Z,66.54
2019-02-28T17:52:38.689Z,66.23
2019-02-28T17:53:38.716Z,66.64
2019-02-28T17:54:38.673Z,66.44
2019-02-28T17:55:38.651Z,66.54
2019-02-28T17:56:40.882Z,66.44
2019-02-28T17:57:38.653Z,66.54
2019-02-28T17:58:38.618Z,65.83
2019-02-28T17:59:39.009Z,66.74
2019-02-28T18:00:38.596Z,66.64
2019-02-28T18:01:38.629Z,66.64
2019-02-28T18:02:38.891Z,66.64
2019-02-28T18:03:38.583Z,66.64
2019-02-28T18:04:38.553Z,66.74
2019-02-28T18:05:38.554Z,66.74
2019-02-28T18:06:38.552Z,66.64
2019-02-28T18:07:38.528Z,66.74
2019-02-28T18:08:38.581Z,66.13
2019-02-28T18:09:38.513Z,66.03
2019-02-28T18:10:38.500Z,66.03
2019-02-28T18:11:38.508Z,66.06
2019-02-28T18:12:40.633Z,66.77
2019-02-28T18:13:39.458Z,66.27
2019-02-28T18:14:38.443Z,66.27
2019-02-28T18:15:38.442Z,66.36
2019-02-28T18:16:38.441Z,66.77
2019-02-28T18:17:38.407Z,66.36
2019-02-28T18:18:41.620Z,66.47
2019-02-28T18:19:38.384Z,66.47
2019-02-28T18:20:38.384Z,66.36
2019-02-28T18:21:41.057Z,66.91
2019-02-28T18:22:38.357Z,66.39
2019-02-28T18:23:38.348Z,66.36
2019-02-28T18:24:41.123Z,66.27
2019-02-28T18:25:38.317Z,66.36
2019-02-28T18:26:39.215Z,66.36
2019-02-28T18:27:38.301Z,66.47
2019-02-28T18:28:38.295Z,66.57
2019-02-28T18:29:38.278Z,66.57
2019-02-28T18:30:38.261Z,66.57
2019-02-28T18:31:38.319Z,66.67
2019-02-28T18:32:38.245Z,66.67
2019-02-28T18:33:38.243Z,66.67
2019-02-28T18:34:38.225Z,66.67
2019-02-28T18:35:38.211Z,66.67
2019-02-28T18:36:40.157Z,66.57
2019-02-28T18:37:38.204Z,66.57
2019-02-28T18:38:38.174Z,66.67
2019-02-28T18:39:38.183Z,66.77
2019-02-28T18:40:38.158Z,65.86
2019-02-28T18:41:38.895Z,66.06
2019-02-28T18:42:38.156Z,66.16
2019-02-28T18:43:38.117Z,66.16
2019-02-28T18:44:41.231Z,66.06
2019-02-28T18:45:38.095Z,66.16
2019-02-28T18:46:38.086Z,66.16
2019-02-28T18:47:39.715Z,66.06
2019-02-28T18:48:38.062Z,66.06
2019-02-28T18:49:38.054Z,66.06
2019-02-28T18:50:38.048Z,66.06
2019-02-28T18:51:38.026Z,66.06
2019-02-28T18:52:38.036Z,66.06
2019-02-28T18:53:38.003Z,66.36
2019-02-28T18:54:39.375Z,66.27
2019-02-28T18:55:37.994Z,66.27
2019-02-28T18:56:37.989Z,66.27
2019-02-28T18:57:38.054Z,65.95
2019-02-28T18:58:37.952Z,65.95
2019-02-28T18:59:37.937Z,66.27
2019-02-28T19:00:37.926Z,66.67
2019-02-28T19:01:37.924Z,66.27
2019-02-28T19:02:37.937Z,66.67
2019-02-28T19:03:37.915Z,66.67
2019-02-28T19:04:37.889Z,67.29
2019-02-28T19:05:37.885Z,67.99
2019-02-28T19:06:37.864Z,67.49
2019-02-28T19:07:37.870Z,66.77
2019-02-28T19:08:37.855Z,67.08
2019-02-28T19:09:37.832Z,66.88
2019-02-28T19:10:37.829Z,67.79
2019-02-28T19:11:37.816Z,67.69
2019-02-28T19:12:37.822Z,67.29
2019-02-28T19:13:37.788Z,67.32
2019-02-28T19:14:37.785Z,68.20
2019-02-28T19:15:37.771Z,68.03
2019-02-28T19:16:37.751Z,68.84
2019-02-28T19:17:37.770Z,68.33
2019-02-28T19:18:37.738Z,68.33
2019-02-28T19:19:37.726Z,69.12
2019-02-28T19:20:37.705Z,69.22
2019-02-28T19:21:37.693Z,70.17
2019-02-28T19:22:37.709Z,70.37
2019-02-28T19:23:37.673Z,71.09
2019-02-28T19:24:37.666Z,71.63
2019-02-28T19:25:37.663Z,71.91
2019-02-28T19:26:37.657Z,72.86
2019-02-28T19:27:37.665Z,72.55
2019-02-28T19:28:37.616Z,73.27
2019-02-28T19:29:37.604Z,74.08
2019-02-28T19:30:37.607Z,73.27
2019-02-28T19:31:37.588Z,73.27
2019-02-28T19:32:37.602Z,73.16
2019-02-28T19:33:37.571Z,73.27
2019-02-28T19:34:37.550Z,73.88
2019-02-28T19:35:37.543Z,73.77
2019-02-28T19:36:37.533Z,73.67
2019-02-28T19:37:37.538Z,74.38
2019-02-28T19:38:37.531Z,74.22
2019-02-28T19:39:37.504Z,74.32
2019-02-28T19:40:37.487Z,74.42
2019-02-28T19:41:37.481Z,75.24
2019-02-28T19:42:37.487Z,74.63
2019-02-28T19:43:37.457Z,75.13
2019-02-28T19:44:37.438Z,75.24
2019-02-28T19:45:37.439Z,75.04
2019-02-28T19:46:37.422Z,74.63
2019-02-28T19:47:37.434Z,74.38
2019-02-28T19:48:37.395Z,74.83
2019-02-28T19:49:37.403Z,74.79
2019-02-28T19:50:37.387Z,74.52
2019-02-28T19:51:37.374Z,75.82
2019-02-28T19:52:37.380Z,75.31
2019-02-28T19:53:37.401Z,75.95
2019-02-28T19:54:37.332Z,75.95
2019-02-28T19:55:37.320Z,75.75
2019-02-28T19:56:37.317Z,75.54
2019-02-28T19:57:37.375Z,75.44
2019-02-28T19:58:37.284Z,75.04
2019-02-28T19:59:37.296Z,75.04
2019-02-28T20:00:37.265Z,75.65
2019-02-28T20:01:37.287Z,75.44
2019-02-28T20:02:37.246Z,75.75
2019-02-28T20:03:37.258Z,75.34
2019-02-28T20:04:37.224Z,75.44
2019-02-28T20:05:37.228Z,75.85
2019-02-28T20:06:37.215Z,75.78
2019-02-28T20:07:37.203Z,75.99
2019-02-28T20:08:37.210Z,76.16
2019-02-28T20:09:37.162Z,75.89
2019-02-28T20:10:37.156Z,76.09
2019-02-28T20:11:37.140Z,76.09
2019-02-28T20:12:37.133Z,76.40
2019-02-28T20:13:37.143Z,76.09
2019-02-28T20:14:37.110Z,76.19
2019-02-28T20:15:37.097Z,76.29
2019-02-28T20:16:37.104Z,76.09